Time;durP1;ratioP1;P1;durP2;ratioP2;P2;SDS_P1;SDS_P2;PMS_P1;PMS_P2;Temp;Humidity;BMP_temperature;BMP_pressure;BME280_temperature;BME280_humidity;BME280_pressure;Samples;Min_cycle;Max_cycle;Signal;HPM_P1;HPM_P2
2022/12/02 00:03:32;;;;;;;56.75;22.42;;;;;;;3.74;100.00;100916.50;21084834;28;20501;-71
2022/12/02 00:13:34;;;;;;;55.80;23.08;;;;;;;3.62;100.00;100905.00;21089309;28;20063;-71
2022/12/02 00:23:35;;;;;;;55.00;22.85;;;;;;;3.70;100.00;100898.25;21023932;28;20057;-71
2022/12/02 00:33:36;;;;;;;57.13;24.23;;;;;;;3.65;100.00;100895.59;20997947;28;20126;-72
2022/12/02 00:53:58;;;;;;;58.80;22.48;;;;;;;3.67;100.00;100875.75;21003994;28;20049;-72
2022/12/02 01:03:59;;;;;;;62.55;24.35;;;;;;;3.72;100.00;100876.72;21000531;28;20049;-71
2022/12/02 01:14:00;;;;;;;59.38;23.42;;;;;;;3.69;100.00;100870.59;20995778;28;20052;-70
2022/12/02 01:24:02;;;;;;;62.33;23.83;;;;;;;3.54;100.00;100868.56;21054484;28;20161;-70
2022/12/02 01:34:03;;;;;;;59.28;23.50;;;;;;;3.56;100.00;100862.59;21040522;28;20064;-71
2022/12/02 01:44:04;;;;;;;53.70;22.92;;;;;;;3.56;100.00;100856.56;20990853;28;20056;-71
2022/12/02 01:54:05;;;;;;;56.90;23.45;;;;;;;3.57;100.00;100866.94;20990690;28;20090;-72
2022/12/02 02:04:07;;;;;;;56.90;22.27;;;;;;;3.52;100.00;100858.19;20989591;28;20048;-72
2022/12/02 02:14:08;;;;;;;60.65;22.52;;;;;;;3.51;100.00;100846.09;20988556;28;20053;-72
2022/12/02 02:24:09;;;;;;;55.72;23.05;;;;;;;3.46;100.00;100844.28;20987827;28;20111;-72
2022/12/02 02:34:10;;;;;;;59.20;23.40;;;;;;;3.47;100.00;100839.13;20986996;28;20053;-72
2022/12/02 02:44:12;;;;;;;53.20;22.10;;;;;;;3.43;100.00;100836.44;20986899;28;20064;-71
2022/12/02 02:54:13;;;;;;;60.78;22.60;;;;;;;3.40;100.00;100824.28;20985536;28;20060;-72
2022/12/02 03:04:14;;;;;;;62.22;22.42;;;;;;;3.42;100.00;100819.16;20985108;28;20048;-72
2022/12/02 03:14:15;;;;;;;61.28;22.90;;;;;;;3.32;100.00;100813.81;20985176;28;20363;-72
2022/12/02 03:24:17;;;;;;;58.45;22.55;;;;;;;3.41;100.00;100809.66;20918084;28;20052;-71
2022/12/02 03:34:18;;;;;;;54.90;22.05;;;;;;;3.42;100.00;100801.03;20899985;28;20111;-71
2022/12/02 03:44:19;;;;;;;58.55;22.58;;;;;;;3.34;100.00;100801.75;20900641;28;20752;-72
2022/12/02 03:54:20;;;;;;;63.40;22.30;;;;;;;3.45;100.00;100801.09;20900766;28;20730;-71
2022/12/02 04:04:22;;;;;;;54.20;21.17;;;;;;;3.28;100.00;100791.28;20997301;28;20052;-70
2022/12/02 04:14:23;;;;;;;63.58;22.30;;;;;;;3.36;100.00;100782.81;21065693;28;20363;-71
2022/12/02 04:24:24;;;;;;;61.17;25.02;;;;;;;3.31;100.00;100772.38;20998608;28;20404;-72
2022/12/02 04:34:25;;;;;;;69.45;24.45;;;;;;;3.20;100.00;100771.28;20980552;28;20106;-72
2022/12/02 04:44:27;;;;;;;64.85;24.30;;;;;;;3.23;100.00;100759.28;20995029;28;20090;-73
2022/12/02 04:54:28;;;;;;;57.97;21.23;;;;;;;3.11;100.00;100765.91;20995436;28;20053;-72
2022/12/02 05:04:29;;;;;;;65.25;24.05;;;;;;;3.21;100.00;100753.22;20994114;28;20056;-73
2022/12/02 05:14:38;;;;;;;60.95;22.92;;;;;;;3.24;100.00;100761.00;20994755;28;20056;-72
2022/12/02 05:24:39;;;;;;;66.53;24.15;;;;;;;3.10;100.00;100752.09;21010674;28;20052;-72
2022/12/02 05:34:41;;;;;;;59.83;23.30;;;;;;;3.19;100.00;100752.28;20992161;28;20060;-72
2022/12/02 05:44:42;;;;;;;58.50;22.40;;;;;;;3.16;100.00;100749.63;20992473;28;20145;-72
2022/12/02 05:54:43;;;;;;;61.30;23.67;;;;;;;3.20;100.00;100745.38;20991314;28;20061;-72
2022/12/02 06:04:45;;;;;;;60.17;23.35;;;;;;;3.10;100.00;100741.75;20990754;28;20489;-72
2022/12/02 06:14:46;;;;;;;59.63;24.23;;;;;;;3.13;100.00;100734.06;20989152;28;20308;-72
2022/12/02 06:24:47;;;;;;;53.25;20.65;;;;;;;3.09;100.00;100732.25;20988687;28;20048;-71
2022/12/02 06:34:49;;;;;;;55.35;21.30;;;;;;;3.03;100.00;100726.97;20947911;28;20044;-71
2022/12/02 06:45:03;;;;;;;62.08;23.38;;;;;;;3.03;100.00;100732.13;20905617;28;20053;-71
2022/12/02 06:55:04;;;;;;;61.53;22.73;;;;;;;3.00;100.00;100735.53;20904577;28;20079;-72
2022/12/02 07:05:05;;;;;;;68.32;25.30;;;;;;;2.99;100.00;100728.63;20902231;28;20056;-71
2022/12/02 07:15:07;;;;;;;70.47;25.13;;;;;;;2.96;100.00;100728.53;20901643;28;20127;-71
2022/12/02 07:25:08;;;;;;;75.78;28.13;;;;;;;2.95;100.00;100731.97;20974182;28;20095;-71
2022/12/02 07:35:09;;;;;;;71.47;26.27;;;;;;;2.85;100.00;100724.00;20983594;28;20139;-71
2022/12/02 07:45:11;;;;;;;66.25;24.20;;;;;;;2.80;100.00;100724.78;20984319;28;20084;-72
2022/12/02 07:55:12;;;;;;;66.82;24.17;;;;;;;2.83;100.00;100719.69;20983427;28;20059;-72
2022/12/02 08:05:13;;;;;;;72.00;24.95;;;;;;;2.86;100.00;100717.97;21026222;28;20539;-72
2022/12/02 08:15:14;;;;;;;84.65;26.85;;;;;;;2.99;100.00;100715.69;21049362;28;20110;-73
2022/12/02 08:25:16;;;;;;;75.10;24.73;;;;;;;2.94;100.00;100721.59;21048726;22;20113;-69
2022/12/02 08:35:17;;;;;;;71.82;25.27;;;;;;;3.05;100.00;100710.63;21039267;28;20488;-70
2022/12/02 08:45:19;;;;;;;70.25;26.20;;;;;;;2.91;100.00;100706.00;21042590;28;20045;-68
2022/12/02 08:55:20;;;;;;;75.43;26.73;;;;;;;3.01;100.00;100697.59;21036907;28;20394;-70
2022/12/02 09:05:22;;;;;;;84.03;26.98;;;;;;;2.95;100.00;100682.81;21037091;28;20064;-70
2022/12/02 09:15:23;;;;;;;72.60;26.25;;;;;;;3.05;100.00;100689.06;21078692;28;20074;-70
2022/12/02 09:25:24;;;;;;;74.80;26.02;;;;;;;2.93;100.00;100678.50;20999667;28;20048;-70
2022/12/02 09:35:25;;;;;;;73.35;25.92;;;;;;;3.10;100.00;100687.44;20991312;28;20045;-72
2022/12/02 09:45:27;;;;;;;67.13;23.70;;;;;;;3.08;100.00;100673.59;20997972;28;20162;-69
2022/12/02 09:55:28;;;;;;;71.28;24.60;;;;;;;3.11;100.00;100667.59;20992388;28;20053;-70
2022/12/02 10:05:29;;;;;;;74.10;25.05;;;;;;;3.29;100.00;100668.81;20989161;28;20463;-69
2022/12/02 10:15:31;;;;;;;67.15;24.67;;;;;;;3.12;100.00;100664.19;20989131;28;20463;-70
2022/12/02 10:25:32;;;;;;;74.28;26.20;;;;;;;3.19;100.00;100656.56;21066756;28;20083;-70
2022/12/02 10:35:33;;;;;;;75.65;26.85;;;;;;;3.30;100.00;100647.25;21072795;28;20048;-71
2022/12/02 10:45:35;;;;;;;75.13;26.33;;;;;;;3.12;100.00;100644.38;21049381;28;20048;-71
2022/12/02 10:55:36;;;;;;;74.60;26.83;;;;;;;3.17;100.00;100626.34;20985308;28;20471;-71
2022/12/02 11:05:38;;;;;;;72.82;29.25;;;;;;;3.22;100.00;100614.34;20987176;28;20056;-72
2022/12/02 11:15:39;;;;;;;74.00;26.40;;;;;;;3.22;100.00;100614.34;20985330;28;20056;-69
2022/12/02 11:25:41;;;;;;;58.67;22.45;;;;;;;3.15;100.00;100602.13;21060563;28;20070;-69
2022/12/02 11:35:43;;;;;;;52.95;21.15;;;;;;;3.12;100.00;100595.22;21067167;28;20048;-71
2022/12/02 11:45:44;;;;;;;52.28;21.83;;;;;;;3.12;100.00;100584.00;21067540;28;20056;-71
2022/12/02 11:55:45;;;;;;;64.63;27.92;;;;;;;3.14;100.00;100575.41;21068420;28;20056;-71
2022/12/02 12:05:47;;;;;;;61.47;22.95;;;;;;;3.34;100.00;100568.84;21051003;28;20642;-71
2022/12/02 12:15:48;;;;;;;45.08;18.05;;;;;;;3.31;100.00;100566.22;21072930;28;20078;-71
2022/12/02 12:25:49;;;;;;;45.25;17.73;;;;;;;3.09;100.00;100557.22;20997731;28;20471;-72
2022/12/02 12:35:51;;;;;;;55.60;23.33;;;;;;;3.18;100.00;100534.94;20986635;28;20048;-72
2022/12/02 12:45:52;;;;;;;46.33;18.80;;;;;;;3.25;100.00;100524.69;21043091;28;20052;-71
2022/12/02 12:55:53;;;;;;;52.63;22.05;;;;;;;3.24;100.00;100530.72;21059572;28;20110;-73
2022/12/02 13:06:01;;;;;;;49.78;18.98;;;;;;;3.16;100.00;100515.91;21078359;28;20400;-73
2022/12/02 13:16:02;;;;;;;49.88;20.05;;;;;;;3.21;100.00;100514.25;21074589;28;20044;-73
2022/12/02 13:26:03;;;;;;;47.92;21.50;;;;;;;3.23;100.00;100518.63;21049121;28;20507;-76
2022/12/02 13:36:05;;;;;;;48.17;20.70;;;;;;;3.15;100.00;100509.88;20992599;28;20053;-74
2022/12/02 13:46:06;;;;;;;48.10;19.77;;;;;;;3.17;100.00;100517.69;20992346;28;20053;-74
2022/12/02 13:56:07;;;;;;;48.55;20.35;;;;;;;3.31;100.00;100516.19;20991081;28;20044;-72
2022/12/02 14:06:09;;;;;;;40.15;18.38;;;;;;;3.15;100.00;100522.81;21030592;28;20052;-72
2022/12/02 14:16:10;;;;;;;41.83;19.73;;;;;;;3.17;100.00;100526.31;21099084;28;20043;-72
2022/12/02 14:26:11;;;;;;;24.67;12.38;;;;;;;2.96;100.00;100528.53;21173870;22;20059;-79
2022/12/02 14:36:13;;;;;;;21.35;10.60;;;;;;;2.91;100.00;100522.41;21028161;28;20079;-78
2022/12/02 14:46:14;;;;;;;23.95;12.10;;;;;;;2.98;100.00;100525.13;20999756;28;20071;-78
2022/12/02 14:56:15;;;;;;;29.33;14.88;;;;;;;2.96;100.00;100524.22;20991808;28;20048;-78
2022/12/02 15:06:17;;;;;;;24.65;11.85;;;;;;;2.98;100.00;100521.66;20989469;28;20052;-77
2022/12/02 15:16:18;;;;;;;28.75;14.35;;;;;;;2.97;100.00;100527.66;20998226;28;20056;-78
2022/12/02 15:26:20;;;;;;;22.13;11.52;;;;;;;2.78;100.00;100536.84;20993446;28;20159;-77
2022/12/02 15:36:21;;;;;;;22.67;11.50;;;;;;;2.81;100.00;100532.56;21040399;28;20048;-79
2022/12/02 15:46:22;;;;;;;28.63;12.90;;;;;;;2.78;100.00;100540.31;21056437;28;20060;-78
2022/12/02 15:56:24;;;;;;;28.02;13.23;;;;;;;2.73;100.00;100541.03;21072206;28;20503;-78
2022/12/02 16:06:25;;;;;;;25.75;13.18;;;;;;;2.96;100.00;100549.22;21017235;28;20063;-77
2022/12/02 16:16:27;;;;;;;21.65;12.20;;;;;;;2.89;100.00;100547.38;20984740;28;20052;-78
2022/12/02 16:26:28;;;;;;;29.10;15.13;;;;;;;2.89;100.00;100555.13;20883898;28;20148;-77
2022/12/02 16:36:29;;;;;;;28.85;14.40;;;;;;;2.86;100.00;100563.69;20961854;28;20055;-77
2022/12/02 16:46:35;;;;;;;33.47;16.05;;;;;;;2.83;100.00;100559.34;20999606;28;20072;-77
2022/12/02 16:56:36;;;;;;;29.42;14.48;;;;;;;2.89;100.00;100562.88;21008647;28;20125;-75
2022/12/02 17:06:38;;;;;;;29.20;15.77;;;;;;;2.90;100.00;100564.63;21021222;28;20139;-76
2022/12/02 17:16:39;;;;;;;26.58;13.60;;;;;;;2.87;100.00;100560.25;21038994;28;20052;-77
2022/12/02 17:26:40;;;;;;;32.28;15.15;;;;;;;2.71;100.00;100566.00;21049181;28;20474;-76
2022/12/02 17:36:42;;;;;;;28.92;15.27;;;;;;;2.67;100.00;100572.81;21007756;28;20067;-76
2022/12/02 17:46:43;;;;;;;31.65;15.05;;;;;;;2.60;100.00;100581.31;21067531;28;20052;-76
2022/12/02 17:56:46;;;;;;;32.53;16.33;;;;;;;2.53;100.00;100588.06;21067109;28;20056;-77
2022/12/02 18:06:48;;;;;;;30.65;14.77;;;;;;;2.42;100.00;100599.03;21066037;28;20056;-77
2022/12/02 18:16:49;;;;;;;29.75;14.70;;;;;;;2.28;100.00;100591.00;21006980;28;20117;-76
2022/12/02 18:26:50;;;;;;;30.00;13.63;;;;;;;2.22;100.00;100594.31;21065394;28;20048;-76
2022/12/02 18:36:51;;;;;;;29.60;14.57;;;;;;;2.21;100.00;100582.25;21064351;28;20086;-76
2022/12/02 18:46:53;;;;;;;29.67;14.23;;;;;;;2.02;100.00;100572.38;21063534;28;20125;-77
2022/12/02 18:56:54;;;;;;;24.45;12.48;;;;;;;1.92;100.00;100570.44;21064653;28;20052;-76
2022/12/02 19:06:55;;;;;;;25.13;13.15;;;;;;;2.03;100.00;100566.38;21043460;28;20071;-76
2022/12/02 19:16:56;;;;;;;27.60;13.05;;;;;;;2.07;100.00;100563.00;21003865;28;20048;-76
2022/12/02 19:26:58;;;;;;;24.73;12.75;;;;;;;2.07;100.00;100552.69;21033468;28;20056;-76
2022/12/02 19:36:59;;;;;;;28.77;12.82;;;;;;;2.09;100.00;100557.88;20975252;28;20052;-76
2022/12/02 19:47:00;;;;;;;27.90;14.75;;;;;;;2.10;100.00;100563.06;20993762;28;20061;-76
2022/12/02 19:57:04;;;;;;;34.23;14.97;;;;;;;2.20;100.00;100567.56;21037769;28;20134;-76
2022/12/02 20:07:06;;;;;;;30.30;15.50;;;;;;;2.24;100.00;100561.63;21053117;28;20705;-76
2022/12/02 20:17:07;;;;;;;29.48;14.75;;;;;;;2.18;100.00;100556.34;21012667;28;20349;-76
2022/12/02 20:27:08;;;;;;;25.20;13.25;;;;;;;2.18;100.00;100573.56;21059951;28;20491;-75
2022/12/02 20:37:10;;;;;;;28.00;14.57;;;;;;;2.07;100.00;100570.75;21068344;28;20086;-76
2022/12/02 20:47:12;;;;;;;31.67;16.40;;;;;;;2.03;100.00;100572.41;21054977;28;20052;-76
2022/12/02 20:57:13;;;;;;;39.00;17.48;;;;;;;1.99;100.00;100569.72;20979870;28;20048;-75
2022/12/02 21:07:14;;;;;;;42.20;18.90;;;;;;;1.94;100.00;100577.34;21003692;28;20094;-76
2022/12/02 21:17:15;;;;;;;30.55;14.98;;;;;;;1.92;100.00;100576.47;20999205;28;20055;-78
2022/12/02 21:27:17;;;;;;;34.53;16.33;;;;;;;1.97;100.00;100571.41;20983963;28;20110;-76
2022/12/02 21:37:18;;;;;;;28.48;15.43;;;;;;;1.93;100.00;100574.75;20985715;28;20049;-76
2022/12/02 21:47:19;;;;;;;31.75;14.88;;;;;;;1.86;100.00;100575.44;20984073;28;20056;-75
2022/12/02 21:57:21;;;;;;;29.25;14.93;;;;;;;1.85;100.00;100577.16;20984526;28;20481;-75
2022/12/02 22:07:41;;;;;;;29.65;14.93;;;;;;;1.97;100.00;100579.16;20983279;28;20053;-75
2022/12/02 22:17:43;;;;;;;32.55;15.45;;;;;;;1.95;100.00;100578.22;21041392;28;20125;-75
2022/12/02 22:27:44;;;;;;;29.80;14.18;;;;;;;1.90;100.00;100580.72;20982822;28;20053;-76
2022/12/02 22:37:45;;;;;;;32.75;15.48;;;;;;;1.92;100.00;100573.03;20979361;28;20052;-76
2022/12/02 22:47:47;;;;;;;29.45;14.73;;;;;;;1.85;100.00;100571.13;20979576;28;20065;-74
2022/12/02 22:57:48;;;;;;;30.40;14.38;;;;;;;1.87;100.00;100574.59;20979741;28;20090;-76
2022/12/02 23:07:49;;;;;;;33.92;14.80;;;;;;;1.92;100.00;100565.28;21056313;28;20053;-76
2022/12/02 23:17:51;;;;;;;31.85;15.18;;;;;;;1.92;100.00;100565.28;21069900;28;20048;-73
2022/12/02 23:27:52;;;;;;;32.00;14.85;;;;;;;2.01;100.00;100557.69;21069581;28;20080;-75
2022/12/02 23:37:53;;;;;;;31.35;16.02;;;;;;;2.15;100.00;100558.84;21066367;28;20051;-75
2022/12/02 23:47:55;;;;;;;28.20;13.85;;;;;;;2.11;100.00;100558.75;21067135;28;20056;-75
2022/12/02 23:57:56;;;;;;;31.83;15.77;;;;;;;2.21;100.00;100551.25;21068290;28;20121;-75
